Time;durP1;ratioP1;P1;durP2;ratioP2;P2;SDS_P1;SDS_P2;PMS_P1;PMS_P2;Temp;Humidity;BMP_temperature;BMP_pressure;BME280_temperature;BME280_humidity;BME280_pressure;Samples;Min_cycle;Max_cycle;Signal;HPM_P1;HPM_P2
2021/11/24 00:02:22;;;;;;;22.48;8.05;;;-1.70;99.90;;;;;;1942003;72;21031;-73
2021/11/24 00:04:48;;;;;;;11.53;6.90;;;-1.80;99.90;;;;;;1934349;72;21075;-73
2021/11/24 00:07:15;;;;;;;15.00;7.37;;;-1.80;99.90;;;;;;1917371;72;21137;-74
2021/11/24 00:09:41;;;;;;;16.48;7.33;;;-1.60;99.90;;;;;;1934296;72;21152;-73
2021/11/24 00:12:07;;;;;;;12.75;7.33;;;-1.60;99.90;;;;;;1932720;72;21083;-73
2021/11/24 00:14:33;;;;;;;10.50;7.08;;;-1.50;99.90;;;;;;1948351;72;21059;-72
2021/11/24 00:16:59;;;;;;;10.35;7.50;;;-1.50;99.90;;;;;;1939974;72;21203;-73
2021/11/24 00:19:25;;;;;;;10.55;6.75;;;-1.70;99.90;;;;;;1920451;72;21552;-73
2021/11/24 00:21:51;;;;;;;10.72;7.65;;;-1.70;99.90;;;;;;1932945;72;21498;-73
2021/11/24 00:24:17;;;;;;;11.73;7.80;;;-1.70;99.90;;;;;;1937994;71;21499;-72
2021/11/24 00:26:44;;;;;;;14.98;8.40;;;-1.70;99.90;;;;;;1927209;73;21552;-75
2021/11/24 00:29:10;;;;;;;13.85;7.60;;;-1.70;99.90;;;;;;1938890;72;21484;-72
2021/11/24 00:31:36;;;;;;;13.20;6.97;;;-1.70;99.90;;;;;;1938361;72;21075;-73
2021/11/24 00:34:02;;;;;;;12.58;7.45;;;-1.70;99.90;;;;;;1936920;72;22513;-72
2021/11/24 00:36:28;;;;;;;8.95;6.30;;;-1.70;99.90;;;;;;1926681;72;21156;-72
2021/11/24 00:38:54;;;;;;;13.05;8.13;;;-1.80;99.90;;;;;;1947450;71;21066;-72
2021/11/24 00:41:21;;;;;;;18.87;7.37;;;-1.80;99.90;;;;;;1948153;72;21451;-72
2021/11/24 00:43:47;;;;;;;13.25;8.05;;;-1.90;99.90;;;;;;1952275;71;21492;-73
2021/11/24 00:46:13;;;;;;;16.32;7.37;;;-1.90;99.90;;;;;;1942755;72;21493;-73
2021/11/24 00:48:41;;;;;;;16.10;7.90;;;-1.80;99.90;;;;;;1950889;71;21552;-73
2021/11/24 00:51:07;;;;;;;12.13;7.42;;;-1.80;99.90;;;;;;1933539;72;21293;-73
2021/11/24 00:53:33;;;;;;;15.88;7.78;;;-1.70;99.90;;;;;;1952930;72;21047;-73
2021/11/24 00:55:59;;;;;;;12.15;7.55;;;-1.80;99.90;;;;;;1928865;72;21472;-73
2021/11/24 00:58:25;;;;;;;10.88;8.08;;;-1.90;99.90;;;;;;1930868;73;21549;-73
2021/11/24 01:00:51;;;;;;;13.43;7.70;;;-1.90;99.90;;;;;;1937788;73;21474;-72
2021/11/24 01:03:17;;;;;;;11.43;7.95;;;-1.90;99.90;;;;;;1930970;73;21432;-73
2021/11/24 01:05:45;;;;;;;11.33;7.03;;;-1.80;99.90;;;;;;1914877;73;21499;-73
2021/11/24 01:08:11;;;;;;;10.90;7.47;;;-1.90;99.90;;;;;;1927996;73;21149;-73
2021/11/24 01:10:38;;;;;;;11.28;7.53;;;-1.90;99.90;;;;;;1924137;72;21144;-73
2021/11/24 01:13:04;;;;;;;12.28;7.12;;;-2.00;99.90;;;;;;1952408;72;21136;-72
2021/11/24 01:15:30;;;;;;;13.48;7.37;;;-1.90;99.90;;;;;;1950541;73;21160;-73
2021/11/24 01:17:56;;;;;;;11.73;7.12;;;-2.00;99.90;;;;;;1935705;72;21144;-73
2021/11/24 01:20:22;;;;;;;13.62;8.00;;;-2.00;99.90;;;;;;1934090;72;21079;-73
2021/11/24 01:22:49;;;;;;;15.93;7.75;;;-1.90;99.90;;;;;;1945113;73;21155;-73
2021/11/24 01:25:15;;;;;;;11.60;7.90;;;-1.90;99.90;;;;;;1917978;73;21215;-73
2021/11/24 01:27:41;;;;;;;14.18;7.40;;;-2.00;99.90;;;;;;1947894;72;21197;-72
2021/11/24 01:30:08;;;;;;;15.58;7.55;;;-2.10;99.90;;;;;;1935921;73;21082;-72
2021/11/24 01:32:35;;;;;;;9.88;7.20;;;-2.10;99.90;;;;;;1943785;72;21151;-71
2021/11/24 01:35:01;;;;;;;12.73;6.62;;;-2.10;99.90;;;;;;1938504;71;21074;-72
2021/11/24 01:37:27;;;;;;;14.15;7.65;;;-2.10;99.90;;;;;;1939282;72;21471;-74
2021/11/24 01:39:53;;;;;;;10.60;7.40;;;-2.10;99.90;;;;;;1944638;72;21554;-73
2021/11/24 01:42:19;;;;;;;12.35;7.75;;;-2.10;99.90;;;;;;1945249;72;21486;-72
2021/11/24 01:44:45;;;;;;;13.75;7.65;;;-2.00;99.90;;;;;;1944893;73;21613;-74
2021/11/24 01:47:11;;;;;;;12.28;7.05;;;-2.00;99.90;;;;;;1915289;73;21530;-72
2021/11/24 01:49:38;;;;;;;10.65;7.10;;;-2.00;99.90;;;;;;1923041;72;21075;-72
2021/11/24 01:52:04;;;;;;;14.05;7.03;;;-2.00;99.90;;;;;;1949201;72;21071;-72
2021/11/24 01:54:30;;;;;;;9.75;6.45;;;-2.00;99.90;;;;;;1946237;72;21040;-73
2021/11/24 01:56:56;;;;;;;12.13;6.62;;;-2.10;99.90;;;;;;1926232;72;21040;-74
2021/11/24 01:59:22;;;;;;;11.65;6.92;;;-2.20;99.90;;;;;;1915043;73;21068;-72
2021/11/24 02:01:49;;;;;;;11.45;6.67;;;-2.20;99.90;;;;;;1903256;73;21181;-74
2021/11/24 02:04:15;;;;;;;12.80;6.75;;;-2.30;99.90;;;;;;1939033;73;21149;-73
2021/11/24 02:06:41;;;;;;;15.88;6.53;;;-2.30;99.90;;;;;;1931488;71;21129;-74
2021/11/24 02:09:08;;;;;;;11.60;6.65;;;-2.30;99.90;;;;;;1946279;71;21047;-73
2021/11/24 02:11:34;;;;;;;9.43;6.22;;;-2.30;99.90;;;;;;1948653;71;21144;-73
2021/11/24 02:14:00;;;;;;;10.20;6.53;;;-2.30;99.90;;;;;;1940266;71;21153;-73
2021/11/24 02:16:26;;;;;;;8.55;5.92;;;-2.30;99.90;;;;;;1941165;72;21145;-74
2021/11/24 02:18:52;;;;;;;8.05;6.22;;;-2.40;99.90;;;;;;1929568;72;21290;-74
2021/11/24 02:21:19;;;;;;;8.23;5.28;;;-2.50;99.90;;;;;;1940949;72;21439;-73
2021/11/24 02:23:45;;;;;;;8.03;4.90;;;-2.50;99.90;;;;;;1940007;72;21052;-72
2021/11/24 02:26:12;;;;;;;9.10;5.55;;;-2.50;99.90;;;;;;1943114;72;21059;-72
2021/11/24 02:28:39;;;;;;;8.08;4.85;;;-2.40;99.90;;;;;;1947144;72;21466;-72
2021/11/24 02:31:05;;;;;;;9.48;5.30;;;-2.40;99.90;;;;;;1956681;72;21132;-72
2021/11/24 02:33:31;;;;;;;8.25;5.20;;;-2.30;99.90;;;;;;1940472;72;21142;-72
2021/11/24 02:35:57;;;;;;;12.30;5.78;;;-2.30;99.90;;;;;;1938501;72;21065;-73
2021/11/24 02:38:23;;;;;;;9.95;5.33;;;-2.30;99.90;;;;;;1951274;72;21132;-73
2021/11/24 02:40:49;;;;;;;8.30;5.35;;;-2.30;99.90;;;;;;1930100;73;21067;-72
2021/11/24 02:43:16;;;;;;;6.65;5.35;;;-2.30;99.90;;;;;;1922122;72;21140;-72
2021/11/24 02:45:43;;;;;;;8.68;5.87;;;-2.40;99.90;;;;;;1944806;72;21128;-72
2021/11/24 02:48:09;;;;;;;10.43;5.45;;;-2.30;99.90;;;;;;1916364;72;21133;-72
2021/11/24 02:50:35;;;;;;;7.20;4.92;;;-2.40;99.90;;;;;;1932422;72;21267;-72
2021/11/24 02:53:01;;;;;;;9.48;5.37;;;-2.40;99.90;;;;;;1941019;72;21035;-72
2021/11/24 02:55:27;;;;;;;8.05;5.42;;;-2.40;99.90;;;;;;1933992;72;21083;-72
2021/11/24 02:57:55;;;;;;;10.65;5.90;;;-2.30;99.90;;;;;;1927260;73;21466;-72
2021/11/24 03:00:21;;;;;;;11.43;5.35;;;-2.30;99.90;;;;;;1938732;72;21193;-73
2021/11/24 03:02:47;;;;;;;16.48;5.70;;;-2.40;99.90;;;;;;1924583;72;21078;-72
2021/11/24 03:05:13;;;;;;;8.85;5.42;;;-2.40;99.90;;;;;;1923437;73;21069;-73
2021/11/24 03:07:39;;;;;;;7.25;5.87;;;-2.50;99.90;;;;;;1929900;72;21140;-72
2021/11/24 03:10:05;;;;;;;8.95;5.85;;;-2.50;99.90;;;;;;1925244;73;21151;-72
2021/11/24 03:12:31;;;;;;;10.43;6.45;;;-2.50;99.90;;;;;;1911889;73;21152;-72
2021/11/24 03:14:58;;;;;;;8.10;5.58;;;-2.60;99.90;;;;;;1937342;72;21040;-72
2021/11/24 03:17:24;;;;;;;9.10;6.00;;;-2.60;99.90;;;;;;1930586;73;21552;-73
2021/11/24 03:19:50;;;;;;;7.92;5.30;;;-2.70;99.90;;;;;;1910633;72;21475;-72
2021/11/24 03:22:22;;;;;;;13.05;5.92;;;-2.60;99.90;;;;;;1899209;73;21585;-72
2021/11/24 03:24:44;;;;;;;13.05;7.00;;;-2.50;99.90;;;;;;1947297;72;21196;-72
2021/11/24 03:27:10;;;;;;;14.53;6.50;;;-2.50;99.90;;;;;;1950779;72;21169;-72
2021/11/24 03:29:36;;;;;;;15.70;6.95;;;-2.50;99.90;;;;;;1931809;71;21083;-72
2021/11/24 03:32:02;;;;;;;7.75;6.12;;;-2.60;99.90;;;;;;1943330;72;21144;-72
2021/11/24 03:34:28;;;;;;;8.53;6.30;;;-2.50;99.90;;;;;;1952649;72;21155;-72
2021/11/24 03:36:54;;;;;;;10.03;6.50;;;-2.60;99.90;;;;;;1925567;72;21571;-72
2021/11/24 03:39:20;;;;;;;10.20;6.58;;;-2.70;99.90;;;;;;1948714;72;21479;-71
2021/11/24 03:41:47;;;;;;;16.15;6.30;;;-2.70;99.90;;;;;;1937006;71;21503;-72
2021/11/24 03:44:15;;;;;;;8.10;5.75;;;-2.70;99.90;;;;;;1923391;72;21490;-70
2021/11/24 03:46:40;;;;;;;9.48;5.92;;;-2.70;99.90;;;;;;1931092;72;21043;-71
2021/11/24 03:49:07;;;;;;;8.68;5.53;;;-2.70;99.90;;;;;;1921769;72;21082;-71
2021/11/24 03:51:33;;;;;;;7.70;5.78;;;-2.70;99.90;;;;;;1929973;73;21168;-72
2021/11/24 03:53:59;;;;;;;7.22;5.37;;;-2.70;99.90;;;;;;1931374;73;21510;-71
2021/11/24 03:56:25;;;;;;;9.55;6.15;;;-2.70;99.90;;;;;;1930695;72;21440;-72
2021/11/24 03:58:51;;;;;;;10.53;6.05;;;-2.60;99.90;;;;;;1942476;72;21580;-72
2021/11/24 04:01:17;;;;;;;6.25;5.10;;;-2.70;99.90;;;;;;1940708;73;21559;-73
2021/11/24 04:03:43;;;;;;;12.13;6.30;;;-2.70;99.90;;;;;;1934773;72;21072;-72
2021/11/24 04:06:09;;;;;;;10.23;5.90;;;-2.70;99.90;;;;;;1938966;72;21074;-72
2021/11/24 04:08:36;;;;;;;15.60;5.90;;;-2.70;99.90;;;;;;1949545;72;21161;-72
2021/11/24 04:11:02;;;;;;;6.60;5.28;;;-2.70;99.90;;;;;;1956158;72;21188;-72
2021/11/24 04:13:28;;;;;;;7.05;5.30;;;-2.70;99.90;;;;;;1935094;73;21149;-71
2021/11/24 04:15:54;;;;;;;11.18;6.20;;;-2.80;99.90;;;;;;1945706;73;21075;-72
2021/11/24 04:18:20;;;;;;;11.60;6.58;;;-2.80;99.90;;;;;;1912837;72;21197;-72
2021/11/24 04:20:46;;;;;;;9.05;5.70;;;-2.80;99.90;;;;;;1948884;71;21145;-72
2021/11/24 04:23:12;;;;;;;10.35;6.58;;;-2.80;99.90;;;;;;1946857;72;21235;-72
2021/11/24 04:25:38;;;;;;;8.13;5.58;;;-2.80;99.90;;;;;;1917169;72;21086;-73
2021/11/24 04:28:05;;;;;;;13.00;7.03;;;-2.80;99.90;;;;;;1938846;72;21156;-73
2021/11/24 04:30:31;;;;;;;10.93;6.42;;;-2.80;99.90;;;;;;1937465;73;21071;-74
2021/11/24 04:32:57;;;;;;;8.50;5.87;;;-2.80;99.90;;;;;;1931634;71;21079;-72
2021/11/24 04:35:23;;;;;;;9.38;6.35;;;-2.80;99.90;;;;;;1936434;72;21041;-73
2021/11/24 04:37:49;;;;;;;7.25;5.90;;;-2.80;99.90;;;;;;1957049;72;21075;-73
2021/11/24 04:40:15;;;;;;;9.23;6.12;;;-2.80;99.90;;;;;;1918487;73;21226;-72
2021/11/24 04:42:42;;;;;;;13.72;6.87;;;-2.80;99.90;;;;;;1933785;72;21079;-73
2021/11/24 04:45:09;;;;;;;8.48;6.10;;;-2.90;99.90;;;;;;1939807;73;21098;-72
2021/11/24 04:47:35;;;;;;;12.10;5.78;;;-3.00;99.90;;;;;;1920227;72;21078;-72
2021/11/24 04:50:01;;;;;;;7.62;6.37;;;-3.00;99.90;;;;;;1951753;71;21161;-72
2021/11/24 04:52:27;;;;;;;9.93;6.37;;;-3.10;99.90;;;;;;1947730;71;21044;-72
2021/11/24 04:54:53;;;;;;;10.43;6.35;;;-3.10;99.90;;;;;;1941104;72;21070;-74
2021/11/24 04:57:19;;;;;;;8.08;6.10;;;-3.00;99.90;;;;;;1939104;72;21086;-72
2021/11/24 04:59:46;;;;;;;9.08;5.65;;;-3.00;99.90;;;;;;1922842;73;21144;-72
2021/11/24 05:02:13;;;;;;;8.30;6.08;;;-3.10;99.90;;;;;;1941450;72;21608;-71
2021/11/24 05:04:39;;;;;;;9.88;6.33;;;-3.10;99.90;;;;;;1926360;72;21452;-73
2021/11/24 05:07:05;;;;;;;15.38;7.40;;;-2.90;99.90;;;;;;1952569;71;21709;-73
2021/11/24 05:09:31;;;;;;;14.43;7.05;;;-3.10;99.90;;;;;;1939938;71;21143;-72
2021/11/24 05:11:57;;;;;;;10.45;6.97;;;-3.10;99.90;;;;;;1940277;72;21066;-74
2021/11/24 05:14:28;;;;;;;11.08;7.25;;;-3.20;99.90;;;;;;1936798;72;21183;-73
2021/11/24 05:16:51;;;;;;;9.85;6.40;;;-3.10;99.90;;;;;;1937914;73;21528;-73
2021/11/24 05:19:21;;;;;;;12.70;7.42;;;-3.10;99.90;;;;;;1919367;73;21067;-73
2021/11/24 05:21:51;;;;;;;9.63;6.80;;;-3.10;99.90;;;;;;1924863;71;21079;-73
2021/11/24 05:24:15;;;;;;;10.95;6.92;;;-3.20;99.90;;;;;;1923826;72;21601;-73
2021/11/24 05:26:42;;;;;;;11.53;7.35;;;-3.20;99.90;;;;;;1936970;73;21546;-74
2021/11/24 05:29:08;;;;;;;13.93;6.53;;;-3.30;99.90;;;;;;1920495;73;21164;-75
2021/11/24 05:31:34;;;;;;;8.93;6.87;;;-3.30;99.90;;;;;;1943647;71;21149;-75
2021/11/24 05:34:03;;;;;;;7.70;6.15;;;-3.30;99.90;;;;;;1926388;72;21132;-73
2021/11/24 05:36:28;;;;;;;15.50;7.10;;;-3.30;99.90;;;;;;1925788;71;21047;-74
2021/11/24 05:38:54;;;;;;;9.83;6.50;;;-3.20;99.90;;;;;;1946752;71;21124;-74
2021/11/24 05:41:20;;;;;;;10.28;6.55;;;-3.30;99.90;;;;;;1944857;71;21078;-74
2021/11/24 05:43:48;;;;;;;11.85;7.47;;;-3.20;99.90;;;;;;1917013;73;21312;-74
2021/11/24 05:46:29;;;;;;;11.03;7.15;;;-3.30;99.90;;;;;;1948302;72;21701;-73
2021/11/24 05:48:44;;;;;;;11.65;7.50;;;-3.30;99.90;;;;;;1932347;72;21092;-74
2021/11/24 05:51:11;;;;;;;17.32;7.20;;;-3.20;99.90;;;;;;1949562;72;21075;-74
2021/11/24 05:53:37;;;;;;;15.63;7.67;;;-3.20;99.90;;;;;;1948163;72;21479;-73
2021/11/24 05:56:03;;;;;;;10.45;7.08;;;-3.20;99.90;;;;;;1937014;72;21491;-74
2021/11/24 05:58:29;;;;;;;11.55;7.10;;;-3.20;99.90;;;;;;1911549;73;21538;-73
2021/11/24 06:00:55;;;;;;;16.90;8.78;;;-3.20;99.90;;;;;;1932767;73;21482;-76
2021/11/24 06:03:21;;;;;;;13.03;7.90;;;-3.20;99.90;;;;;;1945355;72;21111;-77
2021/11/24 06:05:47;;;;;;;16.12;8.75;;;-3.20;99.90;;;;;;1946608;71;21078;-78
2021/11/24 06:08:13;;;;;;;10.68;7.00;;;-3.20;99.90;;;;;;1938561;71;21047;-78
2021/11/24 06:10:40;;;;;;;11.88;7.55;;;-3.20;99.90;;;;;;1932850;73;21152;-78
2021/11/24 06:13:06;;;;;;;14.75;7.67;;;-3.20;99.90;;;;;;1949367;71;21075;-78
2021/11/24 06:15:32;;;;;;;15.03;8.08;;;-3.10;99.90;;;;;;1934436;72;21130;-78
2021/11/24 06:17:58;;;;;;;11.28;7.10;;;-3.10;99.90;;;;;;1941584;71;21127;-77
2021/11/24 06:20:24;;;;;;;15.75;7.87;;;-3.10;99.90;;;;;;1944374;72;21078;-77
2021/11/24 06:22:50;;;;;;;9.75;7.12;;;-3.10;99.90;;;;;;1923345;72;21083;-75
2021/11/24 06:25:16;;;;;;;13.00;7.67;;;-3.10;99.90;;;;;;1909848;72;21062;-77
2021/11/24 06:27:42;;;;;;;15.38;7.60;;;-3.10;99.90;;;;;;1934696;72;21047;-75
2021/11/24 06:30:09;;;;;;;11.05;7.50;;;-3.00;99.90;;;;;;1945444;72;21142;-77
2021/11/24 06:32:36;;;;;;;15.60;7.90;;;-3.10;99.90;;;;;;1938153;73;21162;-76
2021/11/24 06:35:02;;;;;;;18.42;7.50;;;-3.00;99.90;;;;;;1935832;72;21062;-78
2021/11/24 06:37:28;;;;;;;14.13;7.78;;;-3.00;99.90;;;;;;1936115;71;21173;-77
2021/11/24 06:39:54;;;;;;;16.40;7.08;;;-3.10;99.90;;;;;;1950742;73;21066;-78
2021/11/24 06:42:20;;;;;;;11.95;7.50;;;-3.00;99.90;;;;;;1938886;72;21215;-76
2021/11/24 06:44:46;;;;;;;10.58;7.80;;;-3.00;99.90;;;;;;1950444;73;21082;-77
2021/11/24 06:47:14;;;;;;;17.27;7.95;;;-3.10;99.90;;;;;;1947367;72;21067;-76
2021/11/24 06:49:40;;;;;;;13.53;7.95;;;-3.10;99.90;;;;;;1943710;72;21082;-76
2021/11/24 06:52:06;;;;;;;22.75;9.35;;;-3.10;99.90;;;;;;1940041;71;21140;-78
2021/11/24 06:54:32;;;;;;;22.22;8.73;;;-3.10;99.90;;;;;;1922902;72;21137;-77
2021/11/24 06:56:58;;;;;;;13.95;8.18;;;-3.00;99.90;;;;;;1935704;71;21080;-76
2021/11/24 06:59:24;;;;;;;11.97;8.08;;;-3.00;99.90;;;;;;1933470;72;21036;-77
2021/11/24 07:01:50;;;;;;;15.90;9.20;;;-2.90;99.90;;;;;;1908917;72;21071;-77
2021/11/24 07:04:17;;;;;;;14.58;8.65;;;-2.90;99.90;;;;;;1937158;72;21055;-77
2021/11/24 07:06:43;;;;;;;18.23;9.88;;;-2.80;99.90;;;;;;1931737;72;21145;-77
2021/11/24 07:09:14;;;;;;;18.27;9.90;;;-2.60;99.90;;;;;;1923531;73;21032;-78
2021/11/24 07:11:37;;;;;;;13.18;8.88;;;-2.60;99.90;;;;;;1931155;71;21092;-75
2021/11/24 07:14:03;;;;;;;16.62;10.40;;;-2.50;99.90;;;;;;1937495;71;21168;-76
2021/11/24 07:16:29;;;;;;;17.17;9.35;;;-2.40;99.90;;;;;;1940025;72;21063;-77
2021/11/24 07:18:55;;;;;;;15.95;9.40;;;-2.40;99.90;;;;;;1938587;72;21048;-76
2021/11/24 07:21:21;;;;;;;23.15;9.55;;;-2.30;99.90;;;;;;1924573;72;21129;-77
2021/11/24 07:23:47;;;;;;;12.95;9.00;;;-2.20;99.90;;;;;;1937310;72;21071;-77
2021/11/24 07:26:13;;;;;;;19.92;10.15;;;-2.20;99.90;;;;;;1938249;72;21078;-77
2021/11/24 07:28:39;;;;;;;14.70;9.83;;;-2.30;99.90;;;;;;1931091;72;21118;-77
2021/11/24 07:31:06;;;;;;;16.02;10.40;;;-2.30;99.90;;;;;;1917054;72;21075;-77
2021/11/24 07:33:32;;;;;;;17.52;9.88;;;-2.40;99.90;;;;;;1916531;73;21134;-77
2021/11/24 07:35:58;;;;;;;17.70;9.85;;;-2.40;99.90;;;;;;1948388;71;21118;-77
2021/11/24 07:38:24;;;;;;;18.07;9.78;;;-2.50;99.90;;;;;;1941402;73;21067;-77
2021/11/24 07:40:50;;;;;;;13.05;8.98;;;-2.50;99.90;;;;;;1944552;72;21156;-76
2021/11/24 07:43:16;;;;;;;12.93;9.08;;;-2.30;99.90;;;;;;1946162;72;21322;-76
2021/11/24 07:45:42;;;;;;;15.32;10.43;;;-2.20;99.90;;;;;;1950594;73;21448;-76
2021/11/24 07:48:08;;;;;;;20.48;11.43;;;-2.10;99.90;;;;;;1923271;72;21568;-76
2021/11/24 07:50:35;;;;;;;22.60;9.70;;;-2.10;99.90;;;;;;1947831;73;21544;-77
2021/11/24 07:53:01;;;;;;;13.55;8.90;;;-1.90;99.90;;;;;;1928501;72;21482;-77
2021/11/24 07:55:27;;;;;;;14.00;9.48;;;-1.80;99.90;;;;;;1944305;73;21039;-78
2021/11/24 07:57:53;;;;;;;17.12;10.05;;;-1.60;99.90;;;;;;1949760;73;21135;-78
2021/11/24 08:00:19;;;;;;;19.07;9.20;;;-1.40;99.90;;;;;;1932003;72;21140;-76
2021/11/24 08:02:45;;;;;;;17.80;9.35;;;-1.30;99.90;;;;;;1950294;71;21123;-77
2021/11/24 08:05:12;;;;;;;17.27;9.73;;;-1.30;99.90;;;;;;1907682;72;21474;-77
2021/11/24 08:07:38;;;;;;;20.82;9.98;;;-1.20;99.90;;;;;;1928860;71;21461;-77
2021/11/24 08:10:04;;;;;;;22.22;9.63;;;-1.10;99.90;;;;;;1942181;72;21166;-77
2021/11/24 08:12:30;;;;;;;14.53;8.98;;;-1.00;99.90;;;;;;1952361;72;21070;-77
2021/11/24 08:14:57;;;;;;;25.30;9.83;;;-0.90;99.90;;;;;;1946558;73;21153;-77
2021/11/24 08:17:23;;;;;;;22.52;9.75;;;-0.80;99.90;;;;;;1938118;72;21071;-76
2021/11/24 08:19:49;;;;;;;14.45;9.60;;;-0.70;99.90;;;;;;1944140;72;21043;-75
2021/11/24 08:22:15;;;;;;;13.68;9.33;;;-0.60;99.90;;;;;;1935344;72;21140;-78
2021/11/24 08:24:41;;;;;;;21.17;10.25;;;-0.60;99.90;;;;;;1923081;72;21118;-79
2021/11/24 08:27:07;;;;;;;16.05;8.88;;;-0.40;99.90;;;;;;1933036;72;21083;-79
2021/11/24 08:29:33;;;;;;;17.57;10.08;;;-0.40;99.90;;;;;;1924563;72;21079;-78
2021/11/24 08:31:59;;;;;;;22.85;9.80;;;-0.20;99.90;;;;;;1923516;72;21291;-79
2021/11/24 08:34:26;;;;;;;19.82;9.43;;;-0.10;99.90;;;;;;1924891;71;21152;-78
2021/11/24 08:36:52;;;;;;;26.77;11.22;;;-0.10;99.90;;;;;;1918008;72;21036;-78
2021/11/24 08:39:18;;;;;;;27.27;11.00;;;0.00;99.90;;;;;;1933132;72;21047;-78
2021/11/24 08:41:44;;;;;;;27.60;10.95;;;0.20;99.90;;;;;;1933670;72;22644;-77
2021/11/24 08:44:10;;;;;;;28.00;12.00;;;0.20;99.90;;;;;;1929133;72;21193;-77
2021/11/24 08:46:37;;;;;;;28.85;10.20;;;0.30;99.90;;;;;;1931555;72;21263;-77
2021/11/24 08:49:03;;;;;;;22.32;9.53;;;0.50;99.90;;;;;;1933210;71;21044;-77
2021/11/24 08:51:30;;;;;;;24.40;11.08;;;0.60;99.90;;;;;;1945624;72;21048;-77
2021/11/24 08:53:56;;;;;;;25.05;9.70;;;0.70;99.90;;;;;;1927394;71;21083;-78
2021/11/24 08:56:22;;;;;;;14.65;9.83;;;0.80;99.90;;;;;;1930873;72;21149;-77
2021/11/24 08:58:48;;;;;;;29.65;10.65;;;1.00;99.90;;;;;;1936784;72;21083;-77
2021/11/24 09:01:14;;;;;;;23.70;10.18;;;1.00;99.90;;;;;;1942273;73;21197;-79
2021/11/24 09:03:40;;;;;;;17.50;8.65;;;1.20;99.90;;;;;;1947897;72;21071;-79
2021/11/24 09:06:07;;;;;;;24.90;10.13;;;1.20;99.90;;;;;;1922608;73;21487;-75
2021/11/24 09:08:33;;;;;;;34.98;10.55;;;1.40;99.90;;;;;;1939531;72;21495;-78
2021/11/24 09:10:59;;;;;;;18.20;10.60;;;1.50;99.90;;;;;;1945770;72;21115;-77
2021/11/24 09:13:26;;;;;;;20.00;10.55;;;1.60;99.90;;;;;;1926341;73;21153;-78
2021/11/24 09:15:52;;;;;;;18.48;10.18;;;1.90;99.90;;;;;;1956138;71;21149;-78
2021/11/24 09:18:18;;;;;;;24.43;10.85;;;1.90;99.90;;;;;;1937789;72;21478;-82
2021/11/24 09:20:44;;;;;;;17.75;9.78;;;2.30;99.90;;;;;;1931866;72;21534;-78
2021/11/24 09:23:13;;;;;;;21.62;10.88;;;2.30;99.90;;;;;;1942628;72;21052;-79
2021/11/24 09:25:48;;;;;;;16.73;11.50;;;2.50;99.90;;;;;;1944283;72;21107;-78
2021/11/24 09:28:12;;;;;;;26.35;11.65;;;2.80;99.90;;;;;;1926478;72;21227;-77
2021/11/24 09:30:34;;;;;;;22.70;10.30;;;2.80;99.90;;;;;;1927554;71;21120;-76
2021/11/24 09:33:01;;;;;;;23.02;10.80;;;3.00;99.90;;;;;;1929890;73;21201;-78
2021/11/24 09:35:29;;;;;;;23.47;11.97;;;3.20;99.90;;;;;;1930050;71;21144;-77
2021/11/24 09:37:55;;;;;;;19.30;11.15;;;3.70;99.90;;;;;;1932517;72;21039;-78
2021/11/24 09:40:21;;;;;;;19.37;11.38;;;3.50;99.90;;;;;;1928198;72;21074;-77
2021/11/24 09:42:47;;;;;;;22.48;12.85;;;3.40;99.90;;;;;;1922961;72;21075;-79
2021/11/24 09:45:13;;;;;;;24.72;12.68;;;3.60;99.90;;;;;;1921895;72;21079;-76
2021/11/24 09:47:39;;;;;;;21.80;12.53;;;3.70;99.90;;;;;;1917690;73;21148;-78
2021/11/24 09:50:06;;;;;;;23.18;13.45;;;3.80;99.90;;;;;;1946684;71;21498;-78
2021/11/24 09:52:32;;;;;;;36.03;19.27;;;4.00;99.90;;;;;;1915568;73;21467;-78
2021/11/24 09:54:58;;;;;;;28.95;11.90;;;4.30;99.90;;;;;;1945607;72;21504;-78
2021/11/24 09:57:24;;;;;;;15.40;11.12;;;4.40;99.90;;;;;;1932927;71;21071;-77
2021/11/24 09:59:50;;;;;;;16.93;11.28;;;4.60;99.90;;;;;;1946948;71;21160;-79
2021/11/24 10:02:16;;;;;;;17.40;10.70;;;4.70;99.90;;;;;;1942181;71;21040;-80
2021/11/24 10:04:44;;;;;;;19.52;11.43;;;5.30;99.90;;;;;;1940581;72;21225;-80
2021/11/24 10:07:10;;;;;;;16.60;10.88;;;5.40;99.90;;;;;;1942705;71;21535;-80
2021/11/24 10:09:38;;;;;;;15.68;10.40;;;5.50;99.90;;;;;;1941959;72;21062;-80
2021/11/24 10:12:04;;;;;;;16.55;10.85;;;4.90;99.90;;;;;;1951623;71;21536;-80
2021/11/24 10:14:30;;;;;;;13.95;9.85;;;4.90;99.90;;;;;;1952671;71;21046;-79
2021/11/24 10:16:56;;;;;;;15.80;9.73;;;4.70;99.90;;;;;;1951472;72;21124;-79
2021/11/24 10:19:22;;;;;;;16.30;10.60;;;4.30;99.90;;;;;;1945039;71;21630;-77
2021/11/24 10:21:48;;;;;;;18.70;10.00;;;4.20;99.90;;;;;;1941036;72;21529;-78
2021/11/24 10:24:14;;;;;;;22.62;10.82;;;4.20;99.90;;;;;;1949307;73;21035;-76
2021/11/24 10:26:41;;;;;;;21.60;11.68;;;4.20;99.90;;;;;;1931241;73;21266;-77
2021/11/24 10:29:07;;;;;;;21.35;10.70;;;4.10;99.90;;;;;;1952598;72;21070;-77
2021/11/24 10:31:33;;;;;;;19.25;11.63;;;4.00;99.90;;;;;;1910981;72;21067;-77
2021/11/24 10:34:00;;;;;;;19.73;11.30;;;4.70;99.90;;;;;;1924027;72;21609;-78
2021/11/24 10:36:26;;;;;;;15.03;10.60;;;5.20;99.90;;;;;;1938908;71;21133;-79
2021/11/24 10:38:52;;;;;;;14.28;10.28;;;5.40;99.90;;;;;;1931861;73;21146;-79
2021/11/24 10:41:18;;;;;;;15.28;10.28;;;5.80;99.90;;;;;;1954726;72;21044;-78
2021/11/24 10:43:45;;;;;;;17.07;10.40;;;5.90;99.90;;;;;;1916729;72;21075;-79
2021/11/24 10:46:13;;;;;;;16.90;10.18;;;5.80;99.90;;;;;;1946718;72;21121;-79
2021/11/24 10:48:39;;;;;;;17.48;11.10;;;5.90;99.90;;;;;;1928018;72;21205;-78
2021/11/24 10:51:05;;;;;;;18.20;10.48;;;6.10;99.90;;;;;;1926543;72;21154;-78
2021/11/24 10:53:31;;;;;;;15.35;11.00;;;6.30;99.90;;;;;;1953789;71;21148;-78
2021/11/24 10:55:57;;;;;;;15.90;10.15;;;6.50;99.90;;;;;;1938212;72;21052;-77
2021/11/24 10:58:27;;;;;;;13.78;10.08;;;6.50;99.90;;;;;;1903272;72;21113;-78
2021/11/24 11:00:53;;;;;;;12.57;9.87;;;6.20;99.90;;;;;;1936956;72;21129;-80
2021/11/24 11:03:25;;;;;;;15.88;9.70;;;6.50;99.90;;;;;;1935363;72;21361;-79
2021/11/24 11:05:47;;;;;;;11.38;8.68;;;6.90;99.90;;;;;;1928629;72;21585;-81
2021/11/24 11:08:13;;;;;;;13.13;9.65;;;7.30;99.90;;;;;;1916654;72;21616;-79
2021/11/24 11:10:39;;;;;;;12.47;9.20;;;7.00;99.90;;;;;;1922979;72;21573;-76
2021/11/24 11:13:05;;;;;;;15.98;10.10;;;6.80;99.90;;;;;;1927368;72;21432;-76
2021/11/24 11:15:31;;;;;;;27.00;12.73;;;6.70;99.90;;;;;;1921761;72;21147;-76
2021/11/24 11:18:01;;;;;;;12.73;9.53;;;7.00;99.90;;;;;;1939629;72;21173;-77
2021/11/24 11:20:27;;;;;;;16.73;10.58;;;7.00;99.90;;;;;;1941635;72;21537;-78
2021/11/24 11:22:53;;;;;;;13.13;9.78;;;7.10;99.90;;;;;;1938152;72;21063;-78
2021/11/24 11:25:19;;;;;;;13.60;9.10;;;7.40;99.90;;;;;;1926725;72;21071;-77
2021/11/24 11:27:45;;;;;;;17.25;9.15;;;7.30;99.90;;;;;;1938210;72;21064;-78
2021/11/24 11:30:11;;;;;;;15.13;9.48;;;7.50;99.90;;;;;;1933874;72;21180;-80
2021/11/24 11:32:37;;;;;;;18.73;9.70;;;7.40;99.90;;;;;;1909295;72;21039;-79
2021/11/24 11:35:03;;;;;;;10.88;9.53;;;7.70;99.90;;;;;;1936230;72;21087;-79
2021/11/24 11:37:30;;;;;;;15.50;9.63;;;7.80;99.90;;;;;;1920982;72;21177;-79
2021/11/24 11:39:56;;;;;;;12.50;9.15;;;7.40;99.90;;;;;;1939575;72;21473;-79
2021/11/24 11:42:22;;;;;;;15.25;9.58;;;7.30;99.90;;;;;;1937991;72;21420;-79
2021/11/24 11:44:48;;;;;;;12.23;8.98;;;7.10;99.90;;;;;;1919642;72;21479;-79
2021/11/24 11:47:14;;;;;;;13.85;10.03;;;7.10;99.90;;;;;;1935398;72;21491;-79
2021/11/24 11:49:42;;;;;;;11.57;9.40;;;6.70;99.90;;;;;;1934218;72;21079;-82
2021/11/24 11:52:08;;;;;;;17.40;9.78;;;7.30;99.90;;;;;;1946392;71;21070;-81
2021/11/24 11:54:34;;;;;;;16.35;10.30;;;6.90;99.90;;;;;;1920175;72;21168;-80
2021/11/24 11:57:03;;;;;;;15.85;9.90;;;7.00;99.90;;;;;;1953148;72;21036;-83
2021/11/24 11:59:29;;;;;;;15.58;9.95;;;7.60;99.90;;;;;;1926477;73;21494;-82
2021/11/24 12:01:57;;;;;;;14.18;9.55;;;7.60;99.90;;;;;;1931708;72;21074;-81
2021/11/24 12:04:26;;;;;;;13.38;9.45;;;8.10;99.90;;;;;;1957220;72;21189;-80
2021/11/24 12:06:51;;;;;;;14.25;9.88;;;8.40;99.90;;;;;;1946096;71;21543;-82
2021/11/24 12:09:17;;;;;;;17.45;10.08;;;8.50;99.90;;;;;;1938320;72;21153;-79
2021/11/24 12:11:43;;;;;;;17.40;9.90;;;8.40;99.90;;;;;;1933403;72;21141;-80
2021/11/24 12:14:09;;;;;;;15.40;10.08;;;8.90;99.90;;;;;;1934356;72;21156;-78
2021/11/24 12:16:40;;;;;;;16.27;10.32;;;9.50;99.90;;;;;;1916046;72;21134;-79
2021/11/24 12:19:08;;;;;;;13.22;9.93;;;9.30;99.90;;;;;;1921026;72;21169;-79
2021/11/24 12:21:34;;;;;;;12.73;9.63;;;8.60;99.90;;;;;;1926016;72;21137;-80
2021/11/24 12:24:00;;;;;;;15.28;9.90;;;8.60;99.90;;;;;;1929031;72;21082;-79
2021/11/24 12:26:26;;;;;;;14.80;10.20;;;8.80;99.90;;;;;;1928154;72;21032;-80
2021/11/24 12:28:52;;;;;;;13.98;10.08;;;8.90;99.90;;;;;;1927007;71;21478;-81
2021/11/24 12:31:19;;;;;;;16.17;11.38;;;7.90;99.90;;;;;;1926040;72;21494;-82
2021/11/24 12:33:52;;;;;;;17.90;10.53;;;8.10;99.90;;;;;;1946649;72;21148;-80
2021/11/24 12:36:15;;;;;;;15.15;10.93;;;8.00;99.90;;;;;;1948692;72;21095;-80